createdAt,value
2023-03-05T00:22:47.499Z,3.7
2023-03-05T01:22:56.970Z,3.6
2023-03-05T01:32:57.835Z,3.6
2023-03-05T01:42:58.148Z,3.5
2023-03-05T01:52:58.697Z,3.5
2023-03-05T02:02:59.324Z,3.4
2023-03-05T02:33:01.003Z,3.4
2023-03-05T02:43:01.903Z,3.4
2023-03-05T02:53:02.438Z,3.3
2023-03-05T03:03:03.242Z,3.3
2023-03-05T03:13:04.245Z,3.3
2023-03-05T03:23:04.748Z,3.1
2023-03-05T03:33:05.555Z,3.1
2023-03-05T03:43:06.268Z,3
2023-03-05T03:53:06.844Z,2.9
2023-03-05T04:03:07.203Z,2.9
2023-03-05T04:33:09.138Z,2.7
2023-03-05T04:43:10.028Z,2.6
2023-03-05T04:53:10.791Z,2.6
2023-03-05T05:03:11.232Z,2.5
2023-03-05T05:13:11.931Z,2.5
2023-03-05T05:23:12.054Z,2.6
2023-03-05T05:33:12.777Z,2.6
2023-03-05T05:43:13.554Z,2.6
2023-03-05T06:03:15.408Z,2.6
2023-03-05T06:13:16.479Z,2.6
2023-03-05T06:33:16.982Z,2.6
2023-03-05T06:43:18.007Z,2.6
2023-03-05T06:53:18.123Z,2.7
2023-03-05T07:03:18.745Z,2.8
2023-03-05T07:13:19.697Z,2.9
2023-03-05T07:23:20.312Z,3
2023-03-05T07:33:21.195Z,3.1
2023-03-05T07:43:22.067Z,3.2
2023-03-05T07:53:22.473Z,3.2
2023-03-05T08:03:22.832Z,3.2
2023-03-05T08:13:23.206Z,3.3
2023-03-05T08:23:24.065Z,3.5
2023-03-05T08:33:24.676Z,3.5
2023-03-05T08:43:25.051Z,3.6
2023-03-05T09:03:26.451Z,3.8
2023-03-05T09:13:26.772Z,3.9
2023-03-05T09:23:27.553Z,4.2
2023-03-05T09:33:28.537Z,4.2
2023-03-05T09:43:28.961Z,4.3
2023-03-05T10:03:29.580Z,4.7
2023-03-05T10:13:30.180Z,5.5
2023-03-05T10:23:30.784Z,5.2
2023-03-05T10:33:33.486Z,5.2
2023-03-05T10:43:32.246Z,5.4
2023-03-05T10:53:33.288Z,5.5
2023-03-05T11:13:34.854Z,6.5
2023-03-05T11:23:35.896Z,6.9
2023-03-05T11:33:36.649Z,6.8
2023-03-05T11:43:37.006Z,6.5
2023-03-05T11:53:37.302Z,6.8
2023-03-05T12:03:37.480Z,7.2
2023-03-05T12:13:38.830Z,7.3
2023-03-05T12:23:38.470Z,7.2
2023-03-05T12:33:39.312Z,7.1
2023-03-05T13:13:41.992Z,7.2
2023-03-05T13:33:43.288Z,7.6
2023-03-05T13:53:45.044Z,7.3
2023-03-05T14:03:45.982Z,7.4
2023-03-05T14:13:46.716Z,7.6
2023-03-05T14:23:47.015Z,7.2
2023-03-05T14:33:47.538Z,7.3
2023-03-05T14:43:48.379Z,7.4
2023-03-05T14:53:48.641Z,7.1
2023-03-05T15:03:48.995Z,6.9
2023-03-05T15:13:49.823Z,6.7
2023-03-05T15:23:50.191Z,6.6
2023-03-05T15:33:51.250Z,6.6
2023-03-05T15:43:52.336Z,6.4
2023-03-05T15:53:53.095Z,6.2
2023-03-05T16:03:53.991Z,6.1
2023-03-05T16:13:54.633Z,6
2023-03-05T16:33:56.113Z,6
2023-03-05T16:43:57.035Z,5.9
2023-03-05T16:53:58.021Z,5.8
2023-03-05T17:03:58.726Z,5.6
2023-03-05T17:13:59.668Z,5.5
2023-03-05T17:24:00.762Z,5.3
2023-03-05T17:34:01.014Z,5.2
2023-03-05T17:44:01.875Z,5
2023-03-05T17:54:02.696Z,5
2023-03-05T18:04:03.387Z,4.9
2023-03-05T18:14:03.797Z,4.9
2023-03-05T18:24:04.862Z,4.9
2023-03-05T18:34:05.895Z,4.8
2023-03-05T18:44:06.824Z,4.7
2023-03-05T18:54:07.919Z,4.7
2023-03-05T19:04:08.372Z,4.6
2023-03-05T19:24:09.865Z,4.5
2023-03-05T19:34:10.492Z,4.4
2023-03-05T19:44:10.783Z,4.4
2023-03-05T19:54:11.640Z,4.4
2023-03-05T20:04:11.926Z,4.4
2023-03-05T20:14:12.546Z,4.3
2023-03-05T20:24:12.856Z,4.3
2023-03-05T20:34:13.570Z,4.2
2023-03-05T20:44:14.400Z,4.2
2023-03-05T20:54:15.256Z,4.2
2023-03-05T21:04:16.167Z,4.2
2023-03-05T21:14:16.574Z,4.1
2023-03-05T21:24:17.230Z,4.1
2023-03-05T21:44:17.905Z,4
2023-03-05T21:54:18.117Z,3.9
2023-03-05T22:04:18.480Z,3.9
2023-03-05T22:14:19.201Z,3.8
2023-03-05T22:34:20.450Z,3.8
2023-03-05T22:44:21.508Z,3.8
2023-03-05T22:54:21.949Z,3.7
2023-03-05T23:04:22.688Z,3.7
2023-03-05T23:14:23.078Z,3.4
2023-03-05T23:24:23.390Z,3.2
2023-03-05T23:44:24.741Z,3
2023-03-05T23:54:25.167Z,3
